createdAt,value
2023-07-06T00:02:02.915Z,20.70
2023-07-06T00:04:34.858Z,20.66
2023-07-06T00:07:06.743Z,20.72
2023-07-06T00:09:39.023Z,20.69
2023-07-06T00:12:11.049Z,20.81
2023-07-06T00:14:42.770Z,20.68
2023-07-06T00:17:15.977Z,20.69
2023-07-06T00:19:47.533Z,20.44
2023-07-06T00:22:19.076Z,20.53
2023-07-06T00:24:50.609Z,20.26
2023-07-06T00:27:22.216Z,20.13
2023-07-06T00:29:53.829Z,20.34
2023-07-06T00:32:26.197Z,20.48
2023-07-06T00:34:58.372Z,19.81
2023-07-06T00:37:30.128Z,20.38
2023-07-06T00:40:01.796Z,20.37
2023-07-06T00:42:37.534Z,19.99
2023-07-06T00:45:11.669Z,19.69
2023-07-06T00:47:50.123Z,19.90
2023-07-06T00:50:27.218Z,19.91
2023-07-06T00:53:05.498Z,19.90
2023-07-06T00:55:40.301Z,20.00
2023-07-06T00:58:18.680Z,20.08
2023-07-06T01:00:54.108Z,19.95
2023-07-06T01:03:26.394Z,19.62
2023-07-06T01:06:03.550Z,19.82
2023-07-06T01:08:35.350Z,19.96
2023-07-06T01:11:09.323Z,19.85
2023-07-06T01:13:53.033Z,19.79
2023-07-06T01:16:53.652Z,19.77
2023-07-06T01:19:44.452Z,18.98
2023-07-06T01:22:22.290Z,19.01
2023-07-06T01:25:00.259Z,19.17
2023-07-06T01:28:13.224Z,19.27
2023-07-06T01:31:03.160Z,18.96
2023-07-06T01:33:59.458Z,18.92
2023-07-06T01:37:02.236Z,18.90
2023-07-06T01:39:34.134Z,18.14
2023-07-06T01:42:08.897Z,18.60
2023-07-06T01:44:44.321Z,18.18
2023-07-06T01:47:19.732Z,18.68
2023-07-06T01:49:53.686Z,18.61
2023-07-06T01:52:25.414Z,18.84
2023-07-06T01:55:09.504Z,18.72
2023-07-06T01:58:05.699Z,18.74
2023-07-06T02:00:46.466Z,19.12
2023-07-06T02:03:19.593Z,18.59
2023-07-06T02:05:52.540Z,18.96
2023-07-06T02:08:25.072Z,19.20
2023-07-06T02:10:56.826Z,18.62
2023-07-06T02:13:29.160Z,18.88
2023-07-06T02:16:01.805Z,19.26
2023-07-06T02:18:33.889Z,19.14
2023-07-06T02:21:05.555Z,18.51
2023-07-06T02:23:37.170Z,18.50
2023-07-06T02:26:08.786Z,18.41
2023-07-06T02:28:40.367Z,19.00
2023-07-06T02:31:11.992Z,18.64
2023-07-06T02:33:43.639Z,19.23
2023-07-06T02:36:15.404Z,19.44
2023-07-06T02:38:46.979Z,19.39
2023-07-06T02:41:18.585Z,19.13
2023-07-06T02:43:50.506Z,19.20
2023-07-06T02:46:22.279Z,19.28
2023-07-06T02:48:54.089Z,19.24
2023-07-06T02:51:25.904Z,19.39
2023-07-06T02:53:57.504Z,19.41
2023-07-06T02:56:29.262Z,19.35
2023-07-06T02:59:00.977Z,19.35
2023-07-06T03:01:32.708Z,19.29
2023-07-06T03:04:05.212Z,19.11
2023-07-06T03:06:38.773Z,18.94
2023-07-06T03:09:10.681Z,19.18
2023-07-06T03:11:42.419Z,19.21
2023-07-06T03:14:14.494Z,18.95
2023-07-06T03:16:46.181Z,18.94
2023-07-06T03:19:18.145Z,18.90
2023-07-06T03:21:49.910Z,18.88
2023-07-06T03:24:22.297Z,18.83
2023-07-06T03:26:54.619Z,18.85
2023-07-06T03:29:26.409Z,18.85
2023-07-06T03:31:59.123Z,18.73
2023-07-06T03:34:31.313Z,18.76
2023-07-06T03:37:02.985Z,18.31
2023-07-06T03:39:35.700Z,18.52
2023-07-06T03:42:07.976Z,17.89
2023-07-06T03:44:39.892Z,17.66
2023-07-06T03:47:12.020Z,18.12
2023-07-06T03:49:43.760Z,18.12
2023-07-06T03:52:15.293Z,17.92
2023-07-06T03:54:46.865Z,17.90
2023-07-06T03:57:18.417Z,17.53
2023-07-06T03:59:50.021Z,17.67
2023-07-06T04:02:21.637Z,17.74
2023-07-06T04:04:53.231Z,17.78
2023-07-06T04:07:24.814Z,17.75
2023-07-06T04:09:56.402Z,17.93
2023-07-06T04:12:27.986Z,17.90
2023-07-06T04:14:59.804Z,17.71
2023-07-06T04:17:32.752Z,17.90
2023-07-06T04:20:06.137Z,17.71
2023-07-06T04:22:37.683Z,17.91
2023-07-06T04:25:09.434Z,17.91
2023-07-06T04:27:40.953Z,17.54
2023-07-06T04:30:14.154Z,17.65
2023-07-06T04:32:50.458Z,17.26
2023-07-06T04:35:23.081Z,17.71
2023-07-06T04:37:55.620Z,18.15
2023-07-06T04:40:27.793Z,18.27
2023-07-06T04:42:59.522Z,18.62
2023-07-06T04:45:31.211Z,18.51
2023-07-06T04:48:02.880Z,18.50
2023-07-06T04:50:34.615Z,18.33
2023-07-06T04:53:06.425Z,18.22
2023-07-06T04:55:38.384Z,18.32
2023-07-06T04:58:10.356Z,18.29
2023-07-06T05:00:42.150Z,18.54
2023-07-06T05:03:14.778Z,18.41
2023-07-06T05:05:47.924Z,18.39
2023-07-06T05:08:20.148Z,18.68
2023-07-06T05:10:53.201Z,18.91
2023-07-06T05:13:26.078Z,18.77
2023-07-06T05:15:58.802Z,18.42
2023-07-06T05:18:30.807Z,18.77
2023-07-06T05:21:02.448Z,18.81
2023-07-06T05:23:34.497Z,18.94
2023-07-06T05:26:06.770Z,18.46
2023-07-06T05:28:38.707Z,18.64
2023-07-06T05:31:10.442Z,18.48
2023-07-06T05:33:42.240Z,18.81
2023-07-06T05:36:13.946Z,18.86
2023-07-06T05:38:45.837Z,18.88
2023-07-06T05:41:17.469Z,19.20
2023-07-06T05:43:49.010Z,19.30
2023-07-06T05:46:20.608Z,19.95
2023-07-06T05:48:54.443Z,19.32
2023-07-06T05:51:25.999Z,19.69
2023-07-06T05:53:57.571Z,19.68
2023-07-06T05:56:30.676Z,20.42
2023-07-06T05:59:02.225Z,21.04
2023-07-06T06:01:33.965Z,20.89
2023-07-06T06:04:05.551Z,20.96
2023-07-06T06:06:52.353Z,20.81
2023-07-06T06:09:26.041Z,20.75
2023-07-06T06:12:01.305Z,21.14
2023-07-06T06:14:33.935Z,20.93
2023-07-06T06:17:05.856Z,21.16
2023-07-06T06:19:38.734Z,20.95
2023-07-06T06:22:10.637Z,20.95
2023-07-06T06:24:42.870Z,21.35
2023-07-06T06:27:18.159Z,20.97
2023-07-06T06:29:49.836Z,21.39
2023-07-06T06:32:21.567Z,21.20
2023-07-06T06:34:53.578Z,21.79
2023-07-06T06:37:25.125Z,21.44
2023-07-06T06:39:56.694Z,21.33
2023-07-06T06:42:28.369Z,21.36
2023-07-06T06:45:00.865Z,21.67
2023-07-06T06:47:32.636Z,21.65
2023-07-06T06:50:04.731Z,22.03
2023-07-06T06:52:37.033Z,21.78
2023-07-06T06:55:09.330Z,22.06
2023-07-06T06:57:41.055Z,21.43
2023-07-06T07:00:14.846Z,21.69
2023-07-06T07:02:46.872Z,21.27
2023-07-06T07:05:18.872Z,22.13
2023-07-06T07:07:52.031Z,22.38
2023-07-06T07:10:25.381Z,22.60
2023-07-06T07:13:00.289Z,22.37
2023-07-06T07:15:33.148Z,22.06
2023-07-06T07:18:04.930Z,22.66
2023-07-06T07:20:36.850Z,22.66
2023-07-06T07:23:09.927Z,22.39
2023-07-06T07:25:42.141Z,22.80
2023-07-06T07:28:15.925Z,22.95
2023-07-06T07:30:58.004Z,22.60
2023-07-06T07:33:29.908Z,23.45
2023-07-06T07:36:03.409Z,23.39
2023-07-06T07:38:35.038Z,23.53
2023-07-06T07:41:08.824Z,23.27
2023-07-06T07:43:40.949Z,23.87
2023-07-06T07:46:12.967Z,24.20
2023-07-06T07:48:47.205Z,24.30
2023-07-06T07:51:23.007Z,24.17
2023-07-06T07:53:56.206Z,24.61
2023-07-06T07:56:28.780Z,24.50
2023-07-06T07:59:00.511Z,24.48
2023-07-06T08:01:32.220Z,24.28
2023-07-06T08:04:04.176Z,25.00
2023-07-06T08:06:35.946Z,24.72
2023-07-06T08:09:07.544Z,24.68
2023-07-06T08:11:39.837Z,24.66
2023-07-06T08:14:12.003Z,24.26
2023-07-06T08:16:43.649Z,24.84
2023-07-06T08:19:41.640Z,25.25
2023-07-06T08:22:10.021Z,24.41
2023-07-06T08:24:42.288Z,24.33
2023-07-06T08:27:16.108Z,23.86
2023-07-06T08:29:48.819Z,24.56
2023-07-06T08:32:20.710Z,24.83
2023-07-06T08:34:52.599Z,24.84
2023-07-06T08:37:24.230Z,24.66
2023-07-06T08:39:56.062Z,24.21
2023-07-06T08:42:28.669Z,24.46
2023-07-06T08:45:00.301Z,24.86
2023-07-06T08:47:32.311Z,24.53
2023-07-06T08:50:04.374Z,24.46
2023-07-06T08:52:36.075Z,24.52
2023-07-06T08:55:14.399Z,24.32
2023-07-06T08:57:47.392Z,24.20
2023-07-06T09:00:23.576Z,23.96
2023-07-06T09:03:07.004Z,24.81
2023-07-06T09:05:46.011Z,25.06
2023-07-06T09:08:19.631Z,24.57
2023-07-06T09:10:51.666Z,25.18
2023-07-06T09:13:26.995Z,24.71
2023-07-06T09:16:02.426Z,24.78
2023-07-06T09:18:34.534Z,24.82
2023-07-06T09:21:06.294Z,24.58
2023-07-06T09:23:38.073Z,24.75
2023-07-06T09:26:32.877Z,24.51
2023-07-06T09:29:14.373Z,25.01
2023-07-06T09:31:48.252Z,24.43
2023-07-06T09:34:30.226Z,24.43
2023-07-06T09:37:03.868Z,24.16
2023-07-06T09:39:35.427Z,24.52
2023-07-06T09:42:11.329Z,25.35
2023-07-06T09:44:43.132Z,25.43
2023-07-06T09:47:16.084Z,25.41
2023-07-06T09:49:57.297Z,25.60
2023-07-06T09:52:29.488Z,25.35
2023-07-06T09:55:06.684Z,24.73
2023-07-06T09:57:38.697Z,24.51
2023-07-06T10:00:17.634Z,24.05
2023-07-06T10:02:58.312Z,24.54
2023-07-06T10:05:42.156Z,24.65
2023-07-06T10:08:34.704Z,25.22
2023-07-06T10:11:18.804Z,25.15
2023-07-06T10:14:11.474Z,24.74
2023-07-06T10:17:14.829Z,24.67
2023-07-06T10:20:11.200Z,25.01
2023-07-06T10:23:20.644Z,25.40
2023-07-06T10:26:14.425Z,25.96
2023-07-06T10:29:00.699Z,25.40
2023-07-06T10:31:42.834Z,25.24
2023-07-06T10:34:24.896Z,25.63
2023-07-06T10:36:56.956Z,25.94
2023-07-06T10:39:28.455Z,25.85
2023-07-06T10:42:03.094Z,25.89
2023-07-06T10:44:40.621Z,25.97
2023-07-06T10:47:33.651Z,25.40
2023-07-06T10:50:08.763Z,25.18
2023-07-06T10:52:53.424Z,25.76
2023-07-06T10:55:30.431Z,26.13
2023-07-06T10:58:23.827Z,25.45
2023-07-06T11:01:08.277Z,26.29
2023-07-06T11:03:44.585Z,25.78
2023-07-06T11:06:35.431Z,25.75
2023-07-06T11:09:07.167Z,25.26
2023-07-06T11:12:03.658Z,25.62
2023-07-06T11:14:40.093Z,25.24
2023-07-06T11:17:21.276Z,25.32
2023-07-06T11:20:16.392Z,25.11
2023-07-06T11:22:54.995Z,25.71
2023-07-06T11:25:28.476Z,25.86
2023-07-06T11:28:05.804Z,25.56
2023-07-06T11:30:57.957Z,25.24
2023-07-06T11:33:43.945Z,25.13
2023-07-06T11:36:40.052Z,23.90
2023-07-06T11:39:48.848Z,25.74
2023-07-06T11:42:57.950Z,25.58
2023-07-06T11:45:29.530Z,26.25
2023-07-06T11:48:07.414Z,25.71
2023-07-06T11:50:40.765Z,25.79
2023-07-06T11:53:15.657Z,25.85
2023-07-06T11:55:48.037Z,26.07
2023-07-06T11:58:23.421Z,25.54
2023-07-06T12:00:58.261Z,25.74
2023-07-06T12:03:30.217Z,26.00
2023-07-06T12:06:02.751Z,26.45
2023-07-06T12:08:37.459Z,26.62
2023-07-06T12:11:17.378Z,26.26
2023-07-06T12:13:55.821Z,25.89
2023-07-06T12:16:39.597Z,26.04
2023-07-06T12:19:13.908Z,26.11
2023-07-06T12:21:53.553Z,25.77
2023-07-06T12:24:27.808Z,26.32
2023-07-06T12:27:03.717Z,26.60
2023-07-06T12:29:35.533Z,26.72
2023-07-06T12:32:17.525Z,27.15
2023-07-06T12:34:54.397Z,26.94
2023-07-06T12:37:26.382Z,27.22
2023-07-06T12:39:58.543Z,26.75
2023-07-06T12:42:30.483Z,26.30
2023-07-06T12:45:03.749Z,26.88
2023-07-06T12:47:38.864Z,27.08
2023-07-06T12:50:18.592Z,27.01
2023-07-06T12:52:50.715Z,27.22
2023-07-06T12:55:24.136Z,26.12
2023-07-06T12:57:56.328Z,26.20
2023-07-06T13:00:30.304Z,26.42
2023-07-06T13:03:05.155Z,27.49
2023-07-06T13:05:38.470Z,27.33
2023-07-06T13:08:14.977Z,26.61
2023-07-06T13:10:59.056Z,27.36
2023-07-06T13:13:38.879Z,27.19
2023-07-06T13:16:19.231Z,26.85
2023-07-06T13:18:51.141Z,27.04
2023-07-06T13:21:27.515Z,27.06
2023-07-06T13:23:59.183Z,27.04
2023-07-06T13:26:31.223Z,26.54
2023-07-06T13:29:02.794Z,26.47
2023-07-06T13:31:52.001Z,26.62
2023-07-06T13:34:25.626Z,26.39
2023-07-06T13:36:57.139Z,25.79
2023-07-06T13:39:28.699Z,25.73
2023-07-06T13:42:00.293Z,25.60
2023-07-06T13:44:31.858Z,25.79
2023-07-06T13:47:05.719Z,25.86
2023-07-06T13:49:37.455Z,27.09
2023-07-06T13:52:09.143Z,26.53
2023-07-06T13:54:40.750Z,27.26
2023-07-06T13:57:12.443Z,27.65
2023-07-06T13:59:44.112Z,27.23
2023-07-06T14:02:15.993Z,27.15
2023-07-06T14:04:47.660Z,27.13
2023-07-06T14:07:19.364Z,27.04
2023-07-06T14:09:51.106Z,27.31
2023-07-06T14:12:22.941Z,27.16
2023-07-06T14:14:54.961Z,26.97
2023-07-06T14:17:27.392Z,27.23
2023-07-06T14:20:03.312Z,27.29
2023-07-06T14:22:35.679Z,27.32
2023-07-06T14:25:23.819Z,27.20
2023-07-06T14:27:57.105Z,26.95
2023-07-06T14:30:28.909Z,27.26
2023-07-06T14:33:04.927Z,27.28
2023-07-06T14:35:37.438Z,27.17
2023-07-06T14:38:10.171Z,27.36
2023-07-06T14:40:42.645Z,27.42
2023-07-06T14:43:14.278Z,27.41
2023-07-06T14:45:46.084Z,26.47
2023-07-06T14:48:17.927Z,26.67
2023-07-06T14:50:49.854Z,26.87
2023-07-06T14:53:21.664Z,26.86
2023-07-06T14:55:54.125Z,26.89
2023-07-06T14:58:27.629Z,27.19
2023-07-06T15:00:59.572Z,26.71
2023-07-06T15:03:31.471Z,27.37
2023-07-06T15:06:05.400Z,27.53
2023-07-06T15:08:37.031Z,27.51
2023-07-06T15:11:08.598Z,27.46
2023-07-06T15:13:40.405Z,27.54
2023-07-06T15:16:12.064Z,27.91
2023-07-06T15:18:43.626Z,27.58
2023-07-06T15:21:19.041Z,27.03
2023-07-06T15:23:50.773Z,26.84
2023-07-06T15:26:22.357Z,26.69
2023-07-06T15:28:54.044Z,27.06
2023-07-06T15:31:25.685Z,27.01
2023-07-06T15:33:57.287Z,26.72
2023-07-06T15:36:29.539Z,26.69
2023-07-06T15:39:01.247Z,26.83
2023-07-06T15:41:34.190Z,26.91
2023-07-06T15:44:07.073Z,27.26
2023-07-06T15:46:38.644Z,27.27
2023-07-06T15:49:10.949Z,27.27
2023-07-06T15:51:42.625Z,27.15
2023-07-06T15:54:14.407Z,27.11
2023-07-06T15:56:46.200Z,27.03
2023-07-06T15:59:18.063Z,27.25
2023-07-06T16:01:49.955Z,27.58
2023-07-06T16:04:21.793Z,27.39
2023-07-06T16:06:53.761Z,27.55
2023-07-06T16:09:25.689Z,27.77
2023-07-06T16:11:57.479Z,27.55
2023-07-06T16:14:29.451Z,27.30
2023-07-06T16:17:01.214Z,27.24
2023-07-06T16:19:32.934Z,26.93
2023-07-06T16:22:04.901Z,26.77
2023-07-06T16:24:36.695Z,26.93
2023-07-06T16:27:08.591Z,26.64
2023-07-06T16:29:41.663Z,26.62
2023-07-06T16:32:14.274Z,26.13
2023-07-06T16:34:46.105Z,26.10
2023-07-06T16:37:18.411Z,27.62
2023-07-06T16:39:51.474Z,29.28
2023-07-06T16:42:23.264Z,31.17
2023-07-06T16:44:58.680Z,31.62
2023-07-06T16:47:31.088Z,32.01
2023-07-06T16:50:03.223Z,29.04
2023-07-06T16:52:55.400Z,29.51
2023-07-06T16:55:27.428Z,29.48
2023-07-06T16:58:11.508Z,29.39
2023-07-06T17:00:45.209Z,28.81
2023-07-06T17:03:19.609Z,29.22
2023-07-06T17:05:54.660Z,27.98
2023-07-06T17:08:27.459Z,27.63
2023-07-06T17:11:08.848Z,27.27
2023-07-06T17:13:40.566Z,27.39
2023-07-06T17:16:12.254Z,27.47
2023-07-06T17:18:43.844Z,26.93
2023-07-06T17:21:15.611Z,26.73
2023-07-06T17:23:47.157Z,26.67
2023-07-06T17:26:18.801Z,27.17
2023-07-06T17:28:50.317Z,27.09
2023-07-06T17:31:21.950Z,25.74
2023-07-06T17:33:53.634Z,25.51
2023-07-06T17:36:25.286Z,25.63
2023-07-06T17:38:56.890Z,25.51
2023-07-06T17:41:28.445Z,25.55
2023-07-06T17:44:00.697Z,25.35
2023-07-06T17:46:32.251Z,25.32
2023-07-06T17:49:03.885Z,25.46
2023-07-06T17:51:35.704Z,25.18
2023-07-06T17:54:07.323Z,25.39
2023-07-06T17:56:39.094Z,25.25
2023-07-06T17:59:10.929Z,25.23
2023-07-06T18:01:42.722Z,25.05
2023-07-06T18:04:14.806Z,24.93
2023-07-06T18:06:46.620Z,25.23
2023-07-06T18:09:18.491Z,25.09
2023-07-06T18:11:50.290Z,24.93
2023-07-06T18:14:22.296Z,24.59
2023-07-06T18:16:54.036Z,24.60
2023-07-06T18:19:25.682Z,24.94
2023-07-06T18:21:58.371Z,25.46
2023-07-06T18:24:30.080Z,25.80
2023-07-06T18:27:01.694Z,25.82
2023-07-06T18:29:33.881Z,25.49
2023-07-06T18:32:06.415Z,25.48
2023-07-06T18:34:38.183Z,25.29
2023-07-06T18:37:09.845Z,25.20
2023-07-06T18:39:44.271Z,25.21
2023-07-06T18:42:17.047Z,25.26
2023-07-06T18:45:03.033Z,25.36
2023-07-06T18:47:36.784Z,25.16
2023-07-06T18:50:08.973Z,25.11
2023-07-06T18:52:40.544Z,25.14
2023-07-06T18:55:12.130Z,25.15
2023-07-06T18:57:43.725Z,24.76
2023-07-06T19:00:15.783Z,24.57
2023-07-06T19:02:47.582Z,24.49
2023-07-06T19:05:19.182Z,24.51
2023-07-06T19:08:00.572Z,24.06
2023-07-06T19:10:39.070Z,23.80
2023-07-06T19:13:12.023Z,23.79
2023-07-06T19:15:48.362Z,23.60
2023-07-06T19:18:20.244Z,23.37
2023-07-06T19:20:52.339Z,23.51
2023-07-06T19:23:24.087Z,23.38
2023-07-06T19:25:57.103Z,23.31
2023-07-06T19:28:29.470Z,22.90
2023-07-06T19:31:02.054Z,22.99
2023-07-06T19:33:35.252Z,23.04
2023-07-06T19:36:15.217Z,23.02
2023-07-06T19:38:55.381Z,23.06
2023-07-06T19:41:36.876Z,22.99
2023-07-06T19:44:14.188Z,22.96
2023-07-06T19:46:47.847Z,22.64
2023-07-06T19:49:26.287Z,22.50
2023-07-06T19:51:59.341Z,22.51
2023-07-06T19:54:33.971Z,22.58
2023-07-06T19:57:12.377Z,22.59
2023-07-06T19:59:47.854Z,22.40
2023-07-06T20:02:25.725Z,22.52
2023-07-06T20:05:01.801Z,22.42
2023-07-06T20:07:34.860Z,22.40
2023-07-06T20:10:20.061Z,22.64
2023-07-06T20:13:00.783Z,22.62
2023-07-06T20:15:37.193Z,22.45
2023-07-06T20:18:17.332Z,22.53
2023-07-06T20:20:56.758Z,22.30
2023-07-06T20:23:33.126Z,22.11
2023-07-06T20:26:17.027Z,22.18
2023-07-06T20:28:56.779Z,22.35
2023-07-06T20:31:39.825Z,22.10
2023-07-06T20:34:14.972Z,22.13
2023-07-06T20:36:58.116Z,22.17
2023-07-06T20:39:36.782Z,21.92
2023-07-06T20:42:10.041Z,21.91
2023-07-06T20:44:51.663Z,21.55
2023-07-06T20:47:26.992Z,21.40
2023-07-06T20:50:05.764Z,21.51
2023-07-06T20:52:37.452Z,21.42
2023-07-06T20:55:09.281Z,21.21
2023-07-06T20:57:40.916Z,21.47
2023-07-06T21:00:14.404Z,21.16
2023-07-06T21:02:46.218Z,21.20
2023-07-06T21:05:17.846Z,21.23
2023-07-06T21:07:53.987Z,21.13
2023-07-06T21:10:26.917Z,21.16
2023-07-06T21:12:58.653Z,20.86
2023-07-06T21:15:30.280Z,20.87
2023-07-06T21:18:01.981Z,20.94
2023-07-06T21:20:33.657Z,20.81
2023-07-06T21:23:05.219Z,21.00
2023-07-06T21:25:36.876Z,20.91
2023-07-06T21:28:08.938Z,20.60
2023-07-06T21:30:41.920Z,20.69
2023-07-06T21:33:13.554Z,20.72
2023-07-06T21:35:45.140Z,20.75
2023-07-06T21:38:16.773Z,20.49
2023-07-06T21:40:52.390Z,20.44
2023-07-06T21:43:24.339Z,20.48
2023-07-06T21:45:55.930Z,20.59
2023-07-06T21:48:27.624Z,20.60
2023-07-06T21:50:59.951Z,20.57
2023-07-06T21:53:32.237Z,20.67
2023-07-06T21:56:07.901Z,20.41
2023-07-06T21:58:41.308Z,20.57
2023-07-06T22:01:13.871Z,20.37
2023-07-06T22:03:45.876Z,20.30
2023-07-06T22:06:20.942Z,20.36
2023-07-06T22:08:53.211Z,20.32
2023-07-06T22:11:28.812Z,20.22
2023-07-06T22:14:00.663Z,20.07
2023-07-06T22:16:32.460Z,20.01
2023-07-06T22:19:04.097Z,20.00
2023-07-06T22:21:35.776Z,19.97
2023-07-06T22:24:07.778Z,20.19
2023-07-06T22:26:39.452Z,20.23
2023-07-06T22:29:11.301Z,20.08
2023-07-06T22:31:43.139Z,20.14
2023-07-06T22:34:14.872Z,20.22
2023-07-06T22:36:46.454Z,20.23
2023-07-06T22:39:18.019Z,20.08
2023-07-06T22:41:49.847Z,20.04
2023-07-06T22:44:21.603Z,19.75
2023-07-06T22:46:53.242Z,19.85
2023-07-06T22:49:24.960Z,20.03
2023-07-06T22:51:57.381Z,20.32
2023-07-06T22:54:29.041Z,20.12
2023-07-06T22:57:01.289Z,20.23
2023-07-06T22:59:32.908Z,20.21
2023-07-06T23:02:04.864Z,20.32
2023-07-06T23:04:36.363Z,20.25
2023-07-06T23:07:07.840Z,19.99
2023-07-06T23:09:39.434Z,20.08
2023-07-06T23:12:11.089Z,20.19
2023-07-06T23:14:42.646Z,20.14
2023-07-06T23:17:14.488Z,20.04
2023-07-06T23:19:47.035Z,19.67
2023-07-06T23:22:18.609Z,19.79
2023-07-06T23:24:50.214Z,19.96
2023-07-06T23:27:21.775Z,19.66
2023-07-06T23:29:53.515Z,19.81
2023-07-06T23:32:31.094Z,19.53
2023-07-06T23:35:02.595Z,19.56
2023-07-06T23:37:34.211Z,19.49
2023-07-06T23:40:06.279Z,19.27
2023-07-06T23:42:38.140Z,19.25
2023-07-06T23:45:10.246Z,19.16
2023-07-06T23:47:42.008Z,19.06
2023-07-06T23:50:13.584Z,18.87
2023-07-06T23:52:45.177Z,18.99
2023-07-06T23:55:16.942Z,19.05
2023-07-06T23:57:48.632Z,18.94
